sensor_id;sensor_type;location;lat;lon;timestamp;P1;durP1;ratioP1;P2;durP2;ratioP2
26696;SDS011;14312;52.614;13.496;2022-08-25T00:00:42;3.70;;;2.60;;
26696;SDS011;14312;52.614;13.496;2022-08-25T00:03:29;2.60;;;2.40;;
26696;SDS011;14312;52.614;13.496;2022-08-25T00:06:15;3.08;;;2.80;;
26696;SDS011;14312;52.614;13.496;2022-08-25T00:09:01;3.88;;;2.78;;
26696;SDS011;14312;52.614;13.496;2022-08-25T00:11:48;2.65;;;2.45;;
26696;SDS011;14312;52.614;13.496;2022-08-25T00:14:35;3.00;;;2.70;;
26696;SDS011;14312;52.614;13.496;2022-08-25T00:17:22;3.22;;;2.88;;
26696;SDS011;14312;52.614;13.496;2022-08-25T00:20:09;2.80;;;2.60;;
26696;SDS011;14312;52.614;13.496;2022-08-25T00:22:55;3.20;;;2.63;;
26696;SDS011;14312;52.614;13.496;2022-08-25T00:25:41;3.65;;;2.83;;
26696;SDS011;14312;52.614;13.496;2022-08-25T00:28:27;3.25;;;2.95;;
26696;SDS011;14312;52.614;13.496;2022-08-25T00:31:16;3.75;;;2.90;;
26696;SDS011;14312;52.614;13.496;2022-08-25T00:34:08;2.92;;;2.72;;
26696;SDS011;14312;52.614;13.496;2022-08-25T00:37:00;3.10;;;2.80;;
26696;SDS011;14312;52.614;13.496;2022-08-25T00:39:47;2.83;;;2.63;;
26696;SDS011;14312;52.614;13.496;2022-08-25T00:42:33;4.18;;;2.63;;
26696;SDS011;14312;52.614;13.496;2022-08-25T00:45:19;3.05;;;2.80;;
26696;SDS011;14312;52.614;13.496;2022-08-25T00:48:05;3.28;;;2.80;;
26696;SDS011;14312;52.614;13.496;2022-08-25T00:50:51;3.28;;;2.97;;
26696;SDS011;14312;52.614;13.496;2022-08-25T00:53:37;3.13;;;2.83;;
26696;SDS011;14312;52.614;13.496;2022-08-25T00:56:24;2.80;;;2.60;;
26696;SDS011;14312;52.614;13.496;2022-08-25T00:59:12;3.08;;;2.88;;
26696;SDS011;14312;52.614;13.496;2022-08-25T01:01:58;3.20;;;2.90;;
26696;SDS011;14312;52.614;13.496;2022-08-25T01:04:45;3.55;;;3.03;;
26696;SDS011;14312;52.614;13.496;2022-08-25T01:07:31;3.65;;;3.00;;
26696;SDS011;14312;52.614;13.496;2022-08-25T01:10:18;3.38;;;3.00;;
26696;SDS011;14312;52.614;13.496;2022-08-25T01:16:25;3.40;;;3.10;;
26696;SDS011;14312;52.614;13.496;2022-08-25T01:19:12;3.28;;;2.97;;
26696;SDS011;14312;52.614;13.496;2022-08-25T01:21:59;3.20;;;2.90;;
26696;SDS011;14312;52.614;13.496;2022-08-25T01:24:49;4.40;;;2.58;;
26696;SDS011;14312;52.614;13.496;2022-08-25T01:27:43;4.00;;;2.60;;
26696;SDS011;14312;52.614;13.496;2022-08-25T01:30:29;3.30;;;2.90;;
26696;SDS011;14312;52.614;13.496;2022-08-25T01:33:15;5.90;;;3.70;;
26696;SDS011;14312;52.614;13.496;2022-08-25T01:36:02;2.92;;;2.67;;
26696;SDS011;14312;52.614;13.496;2022-08-25T01:38:48;3.20;;;2.83;;
26696;SDS011;14312;52.614;13.496;2022-08-25T01:41:57;3.90;;;2.75;;
26696;SDS011;14312;52.614;13.496;2022-08-25T01:45:03;3.28;;;2.60;;
26696;SDS011;14312;52.614;13.496;2022-08-25T01:47:49;2.85;;;2.65;;
26696;SDS011;14312;52.614;13.496;2022-08-25T01:50:36;5.15;;;3.58;;
26696;SDS011;14312;52.614;13.496;2022-08-25T01:53:25;3.30;;;3.00;;
26696;SDS011;14312;52.614;13.496;2022-08-25T01:56:16;3.42;;;3.13;;
26696;SDS011;14312;52.614;13.496;2022-08-25T01:59:03;3.10;;;2.80;;
26696;SDS011;14312;52.614;13.496;2022-08-25T02:01:49;3.50;;;3.20;;
26696;SDS011;14312;52.614;13.496;2022-08-25T02:04:36;3.00;;;2.80;;
26696;SDS011;14312;52.614;13.496;2022-08-25T02:07:22;3.58;;;2.50;;
26696;SDS011;14312;52.614;13.496;2022-08-25T02:10:09;3.55;;;2.88;;
26696;SDS011;14312;52.614;13.496;2022-08-25T02:12:56;3.30;;;3.00;;
26696;SDS011;14312;52.614;13.496;2022-08-25T02:15:46;3.33;;;3.08;;
26696;SDS011;14312;52.614;13.496;2022-08-25T02:18:35;4.00;;;3.10;;
26696;SDS011;14312;52.614;13.496;2022-08-25T02:21:21;2.92;;;2.63;;
26696;SDS011;14312;52.614;13.496;2022-08-25T02:24:07;2.90;;;2.70;;
26696;SDS011;14312;52.614;13.496;2022-08-25T02:26:53;3.20;;;2.80;;
26696;SDS011;14312;52.614;13.496;2022-08-25T02:29:40;2.95;;;2.75;;
26696;SDS011;14312;52.614;13.496;2022-08-25T02:32:26;3.15;;;2.85;;
26696;SDS011;14312;52.614;13.496;2022-08-25T02:35:18;3.67;;;3.13;;
26696;SDS011;14312;52.614;13.496;2022-08-25T02:38:05;3.50;;;3.10;;
26696;SDS011;14312;52.614;13.496;2022-08-25T02:40:51;3.33;;;3.03;;
26696;SDS011;14312;52.614;13.496;2022-08-25T02:43:38;3.40;;;3.10;;
26696;SDS011;14312;52.614;13.496;2022-08-25T02:46:26;3.40;;;3.10;;
26696;SDS011;14312;52.614;13.496;2022-08-25T02:49:12;3.75;;;3.30;;
26696;SDS011;14312;52.614;13.496;2022-08-25T02:51:58;4.75;;;3.80;;
26696;SDS011;14312;52.614;13.496;2022-08-25T02:54:45;3.85;;;3.55;;
26696;SDS011;14312;52.614;13.496;2022-08-25T02:57:30;3.47;;;3.17;;
26696;SDS011;14312;52.614;13.496;2022-08-25T03:00:17;3.88;;;3.58;;
26696;SDS011;14312;52.614;13.496;2022-08-25T03:03:04;4.30;;;3.58;;
26696;SDS011;14312;52.614;13.496;2022-08-25T03:05:50;4.40;;;4.00;;
26696;SDS011;14312;52.614;13.496;2022-08-25T03:08:37;4.70;;;4.20;;
26696;SDS011;14312;52.614;13.496;2022-08-25T03:11:24;4.13;;;3.80;;
26696;SDS011;14312;52.614;13.496;2022-08-25T03:14:20;5.50;;;4.90;;
26696;SDS011;14312;52.614;13.496;2022-08-25T03:17:06;6.95;;;5.18;;
26696;SDS011;14312;52.614;13.496;2022-08-25T03:19:53;6.13;;;5.07;;
26696;SDS011;14312;52.614;13.496;2022-08-25T03:22:42;5.38;;;4.78;;
26696;SDS011;14312;52.614;13.496;2022-08-25T03:25:28;5.80;;;5.20;;
26696;SDS011;14312;52.614;13.496;2022-08-25T03:28:33;5.70;;;5.20;;
26696;SDS011;14312;52.614;13.496;2022-08-25T03:31:21;6.75;;;6.05;;
26696;SDS011;14312;52.614;13.496;2022-08-25T03:34:08;6.30;;;5.70;;
26696;SDS011;14312;52.614;13.496;2022-08-25T03:36:54;6.43;;;5.82;;
26696;SDS011;14312;52.614;13.496;2022-08-25T03:39:41;6.55;;;5.95;;
26696;SDS011;14312;52.614;13.496;2022-08-25T03:42:27;5.88;;;5.35;;
26696;SDS011;14312;52.614;13.496;2022-08-25T03:45:14;6.75;;;6.13;;
26696;SDS011;14312;52.614;13.496;2022-08-25T03:48:02;6.65;;;6.05;;
26696;SDS011;14312;52.614;13.496;2022-08-25T03:50:49;6.78;;;6.18;;
26696;SDS011;14312;52.614;13.496;2022-08-25T03:53:39;6.60;;;6.00;;
26696;SDS011;14312;52.614;13.496;2022-08-25T03:56:25;6.05;;;5.45;;
26696;SDS011;14312;52.614;13.496;2022-08-25T03:59:14;5.75;;;5.25;;
26696;SDS011;14312;52.614;13.496;2022-08-25T04:02:04;5.90;;;5.30;;
26696;SDS011;14312;52.614;13.496;2022-08-25T04:05:06;6.00;;;5.50;;
26696;SDS011;14312;52.614;13.496;2022-08-25T04:07:53;5.55;;;5.05;;
26696;SDS011;14312;52.614;13.496;2022-08-25T04:10:39;6.80;;;6.20;;
26696;SDS011;14312;52.614;13.496;2022-08-25T04:13:25;7.13;;;6.40;;
26696;SDS011;14312;52.614;13.496;2022-08-25T04:16:12;6.00;;;5.50;;
26696;SDS011;14312;52.614;13.496;2022-08-25T04:19:06;6.38;;;5.25;;
26696;SDS011;14312;52.614;13.496;2022-08-25T04:21:53;6.63;;;6.03;;
26696;SDS011;14312;52.614;13.496;2022-08-25T04:24:39;6.70;;;6.10;;
26696;SDS011;14312;52.614;13.496;2022-08-25T04:27:25;6.22;;;5.65;;
26696;SDS011;14312;52.614;13.496;2022-08-25T04:30:11;6.07;;;5.07;;
26696;SDS011;14312;52.614;13.496;2022-08-25T04:32:57;5.30;;;4.90;;
26696;SDS011;14312;52.614;13.496;2022-08-25T04:35:47;5.32;;;4.93;;
26696;SDS011;14312;52.614;13.496;2022-08-25T04:38:34;5.63;;;5.05;;
26696;SDS011;14312;52.614;13.496;2022-08-25T04:41:21;5.00;;;4.60;;
26696;SDS011;14312;52.614;13.496;2022-08-25T04:44:09;5.25;;;4.75;;
26696;SDS011;14312;52.614;13.496;2022-08-25T04:46:55;4.70;;;4.30;;
26696;SDS011;14312;52.614;13.496;2022-08-25T04:49:41;4.85;;;4.45;;
26696;SDS011;14312;52.614;13.496;2022-08-25T04:52:28;4.90;;;4.50;;
26696;SDS011;14312;52.614;13.496;2022-08-25T04:55:15;5.55;;;5.05;;
26696;SDS011;14312;52.614;13.496;2022-08-25T04:58:02;5.32;;;4.85;;
26696;SDS011;14312;52.614;13.496;2022-08-25T05:00:48;5.35;;;4.85;;
26696;SDS011;14312;52.614;13.496;2022-08-25T05:03:37;5.22;;;4.78;;
26696;SDS011;14312;52.614;13.496;2022-08-25T05:06:23;5.70;;;5.20;;
26696;SDS011;14312;52.614;13.496;2022-08-25T05:09:10;5.43;;;4.93;;
26696;SDS011;14312;52.614;13.496;2022-08-25T05:11:57;5.15;;;4.75;;
26696;SDS011;14312;52.614;13.496;2022-08-25T05:14:43;5.55;;;5.05;;
26696;SDS011;14312;52.614;13.496;2022-08-25T05:17:29;5.68;;;5.07;;
26696;SDS011;14312;52.614;13.496;2022-08-25T05:20:15;5.25;;;4.80;;
26696;SDS011;14312;52.614;13.496;2022-08-25T05:23:01;5.78;;;5.28;;
26696;SDS011;14312;52.614;13.496;2022-08-25T05:25:50;5.70;;;5.20;;
26696;SDS011;14312;52.614;13.496;2022-08-25T05:28:37;6.05;;;5.45;;
26696;SDS011;14312;52.614;13.496;2022-08-25T05:31:28;6.40;;;5.80;;
26696;SDS011;14312;52.614;13.496;2022-08-25T05:34:14;6.30;;;5.35;;
26696;SDS011;14312;52.614;13.496;2022-08-25T05:37:01;6.38;;;5.78;;
26696;SDS011;14312;52.614;13.496;2022-08-25T05:39:49;6.05;;;5.53;;
26696;SDS011;14312;52.614;13.496;2022-08-25T05:42:35;6.20;;;5.60;;
26696;SDS011;14312;52.614;13.496;2022-08-25T05:45:21;5.72;;;5.25;;
26696;SDS011;14312;52.614;13.496;2022-08-25T05:48:07;6.05;;;5.55;;
26696;SDS011;14312;52.614;13.496;2022-08-25T05:50:54;6.13;;;5.47;;
26696;SDS011;14312;52.614;13.496;2022-08-25T05:53:44;6.20;;;5.57;;
26696;SDS011;14312;52.614;13.496;2022-08-25T05:56:31;7.10;;;6.50;;
26696;SDS011;14312;52.614;13.496;2022-08-25T05:59:17;6.25;;;5.65;;
26696;SDS011;14312;52.614;13.496;2022-08-25T06:02:03;6.40;;;5.80;;
26696;SDS011;14312;52.614;13.496;2022-08-25T06:05:15;6.10;;;5.60;;
26696;SDS011;14312;52.614;13.496;2022-08-25T06:08:03;5.93;;;5.32;;
26696;SDS011;14312;52.614;13.496;2022-08-25T06:10:52;6.30;;;5.70;;
26696;SDS011;14312;52.614;13.496;2022-08-25T06:13:38;6.75;;;6.15;;
26696;SDS011;14312;52.614;13.496;2022-08-25T06:16:25;5.93;;;5.43;;
26696;SDS011;14312;52.614;13.496;2022-08-25T06:19:13;7.00;;;6.35;;
26696;SDS011;14312;52.614;13.496;2022-08-25T06:22:01;6.55;;;5.95;;
26696;SDS011;14312;52.614;13.496;2022-08-25T06:24:48;6.82;;;6.15;;
26696;SDS011;14312;52.614;13.496;2022-08-25T06:27:34;6.95;;;6.35;;
26696;SDS011;14312;52.614;13.496;2022-08-25T06:30:22;6.97;;;6.28;;
26696;SDS011;14312;52.614;13.496;2022-08-25T06:33:08;7.25;;;6.55;;
26696;SDS011;14312;52.614;13.496;2022-08-25T06:35:55;7.22;;;6.53;;
26696;SDS011;14312;52.614;13.496;2022-08-25T06:38:41;8.95;;;7.45;;
26696;SDS011;14312;52.614;13.496;2022-08-25T06:41:27;8.27;;;7.50;;
26696;SDS011;14312;52.614;13.496;2022-08-25T06:44:14;8.15;;;7.35;;
26696;SDS011;14312;52.614;13.496;2022-08-25T06:47:00;9.27;;;7.53;;
26696;SDS011;14312;52.614;13.496;2022-08-25T06:49:46;9.27;;;8.32;;
26696;SDS011;14312;52.614;13.496;2022-08-25T06:52:32;8.95;;;7.78;;
26696;SDS011;14312;52.614;13.496;2022-08-25T06:55:18;9.07;;;7.50;;
26696;SDS011;14312;52.614;13.496;2022-08-25T06:58:04;8.50;;;7.65;;
26696;SDS011;14312;52.614;13.496;2022-08-25T07:00:50;8.75;;;7.78;;
26696;SDS011;14312;52.614;13.496;2022-08-25T07:03:36;9.35;;;8.10;;
26696;SDS011;14312;52.614;13.496;2022-08-25T07:06:22;8.90;;;7.28;;
26696;SDS011;14312;52.614;13.496;2022-08-25T07:09:10;11.05;;;9.30;;
26696;SDS011;14312;52.614;13.496;2022-08-25T07:11:57;9.57;;;8.43;;
26696;SDS011;14312;52.614;13.496;2022-08-25T07:14:43;11.50;;;9.18;;
26696;SDS011;14312;52.614;13.496;2022-08-25T07:17:29;10.68;;;8.30;;
26696;SDS011;14312;52.614;13.496;2022-08-25T07:20:16;9.85;;;8.75;;
26696;SDS011;14312;52.614;13.496;2022-08-25T07:23:02;9.27;;;8.30;;
26696;SDS011;14312;52.614;13.496;2022-08-25T07:25:48;10.85;;;9.63;;
26696;SDS011;14312;52.614;13.496;2022-08-25T07:28:35;10.25;;;9.25;;
26696;SDS011;14312;52.614;13.496;2022-08-25T07:31:21;10.02;;;9.02;;
26696;SDS011;14312;52.614;13.496;2022-08-25T07:34:07;9.85;;;8.85;;
26696;SDS011;14312;52.614;13.496;2022-08-25T07:37:12;9.45;;;8.55;;
26696;SDS011;14312;52.614;13.496;2022-08-25T07:40:01;9.73;;;8.73;;
26696;SDS011;14312;52.614;13.496;2022-08-25T07:42:48;9.20;;;8.30;;
26696;SDS011;14312;52.614;13.496;2022-08-25T07:45:36;8.85;;;8.00;;
26696;SDS011;14312;52.614;13.496;2022-08-25T07:48:24;8.60;;;7.80;;
26696;SDS011;14312;52.614;13.496;2022-08-25T07:51:10;9.27;;;8.10;;
26696;SDS011;14312;52.614;13.496;2022-08-25T07:53:58;8.57;;;7.78;;
26696;SDS011;14312;52.614;13.496;2022-08-25T07:56:44;7.72;;;6.97;;
26696;SDS011;14312;52.614;13.496;2022-08-25T07:59:30;7.50;;;6.80;;
26696;SDS011;14312;52.614;13.496;2022-08-25T08:02:17;7.40;;;6.70;;
26696;SDS011;14312;52.614;13.496;2022-08-25T08:05:03;6.93;;;6.28;;
26696;SDS011;14312;52.614;13.496;2022-08-25T08:07:50;6.38;;;5.78;;
26696;SDS011;14312;52.614;13.496;2022-08-25T08:10:38;5.97;;;5.47;;
26696;SDS011;14312;52.614;13.496;2022-08-25T08:13:24;6.15;;;5.65;;
26696;SDS011;14312;52.614;13.496;2022-08-25T08:16:11;5.68;;;5.18;;
26696;SDS011;14312;52.614;13.496;2022-08-25T08:18:58;5.30;;;4.88;;
26696;SDS011;14312;52.614;13.496;2022-08-25T08:21:45;4.75;;;4.35;;
26696;SDS011;14312;52.614;13.496;2022-08-25T08:24:31;5.05;;;4.53;;
26696;SDS011;14312;52.614;13.496;2022-08-25T08:27:23;4.95;;;4.55;;
26696;SDS011;14312;52.614;13.496;2022-08-25T08:30:09;5.03;;;4.57;;
26696;SDS011;14312;52.614;13.496;2022-08-25T08:32:55;5.65;;;5.15;;
26696;SDS011;14312;52.614;13.496;2022-08-25T08:35:41;4.70;;;4.20;;
26696;SDS011;14312;52.614;13.496;2022-08-25T08:38:27;4.68;;;4.28;;
26696;SDS011;14312;52.614;13.496;2022-08-25T08:41:26;6.13;;;4.20;;
26696;SDS011;14312;52.614;13.496;2022-08-25T08:50:49;5.47;;;5.03;;
26696;SDS011;14312;52.614;13.496;2022-08-25T08:54:06;5.57;;;5.07;;
26696;SDS011;14312;52.614;13.496;2022-08-25T08:57:02;5.30;;;4.80;;
26696;SDS011;14312;52.614;13.496;2022-08-25T08:59:58;5.32;;;4.82;;
26696;SDS011;14312;52.614;13.496;2022-08-25T09:02:52;5.15;;;4.65;;
26696;SDS011;14312;52.614;13.496;2022-08-25T09:05:46;5.65;;;5.18;;
26696;SDS011;14312;52.614;13.496;2022-08-25T09:08:35;5.38;;;4.97;;
26696;SDS011;14312;52.614;13.496;2022-08-25T09:11:26;4.85;;;4.45;;
26696;SDS011;14312;52.614;13.496;2022-08-25T09:18:11;5.55;;;5.03;;
26696;SDS011;14312;52.614;13.496;2022-08-25T09:21:02;4.90;;;4.50;;
26696;SDS011;14312;52.614;13.496;2022-08-25T09:24:02;5.47;;;4.95;;
26696;SDS011;14312;52.614;13.496;2022-08-25T09:27:18;5.45;;;4.63;;
26696;SDS011;14312;52.614;13.496;2022-08-25T09:30:16;5.05;;;4.60;;
26696;SDS011;14312;52.614;13.496;2022-08-25T09:33:03;4.97;;;4.45;;
26696;SDS011;14312;52.614;13.496;2022-08-25T09:35:52;5.28;;;4.75;;
26696;SDS011;14312;52.614;13.496;2022-08-25T09:38:41;6.13;;;4.38;;
26696;SDS011;14312;52.614;13.496;2022-08-25T09:42:00;4.65;;;4.20;;
26696;SDS011;14312;52.614;13.496;2022-08-25T09:44:42;4.40;;;4.00;;
26696;SDS011;14312;52.614;13.496;2022-08-25T09:47:29;4.38;;;3.97;;
26696;SDS011;14312;52.614;13.496;2022-08-25T09:50:16;4.90;;;4.32;;
26696;SDS011;14312;52.614;13.496;2022-08-25T09:53:13;4.13;;;3.72;;
26696;SDS011;14312;52.614;13.496;2022-08-25T09:56:02;4.25;;;3.83;;
26696;SDS011;14312;52.614;13.496;2022-08-25T09:58:51;4.00;;;3.38;;
26696;SDS011;14312;52.614;13.496;2022-08-25T10:01:46;3.85;;;3.53;;
26696;SDS011;14312;52.614;13.496;2022-08-25T10:04:36;3.95;;;3.55;;
26696;SDS011;14312;52.614;13.496;2022-08-25T10:07:28;4.07;;;3.75;;
26696;SDS011;14312;52.614;13.496;2022-08-25T10:10:34;4.93;;;4.07;;
26696;SDS011;14312;52.614;13.496;2022-08-25T10:13:33;3.88;;;3.40;;
26696;SDS011;14312;52.614;13.496;2022-08-25T10:16:23;4.10;;;3.80;;
26696;SDS011;14312;52.614;13.496;2022-08-25T10:19:27;3.30;;;3.00;;
26696;SDS011;14312;52.614;13.496;2022-08-25T10:22:23;4.10;;;3.47;;
26696;SDS011;14312;52.614;13.496;2022-08-25T10:25:27;3.78;;;3.45;;
26696;SDS011;14312;52.614;13.496;2022-08-25T10:31:54;3.78;;;3.42;;
26696;SDS011;14312;52.614;13.496;2022-08-25T10:34:45;4.68;;;3.65;;
26696;SDS011;14312;52.614;13.496;2022-08-25T10:40:30;3.85;;;3.45;;
26696;SDS011;14312;52.614;13.496;2022-08-25T10:46:37;4.82;;;3.40;;
26696;SDS011;14312;52.614;13.496;2022-08-25T10:49:43;4.68;;;3.22;;
26696;SDS011;14312;52.614;13.496;2022-08-25T10:53:17;3.70;;;3.10;;
26696;SDS011;14312;52.614;13.496;2022-08-25T11:02:06;4.65;;;3.30;;
26696;SDS011;14312;52.614;13.496;2022-08-25T11:08:39;4.15;;;3.63;;
26696;SDS011;14312;52.614;13.496;2022-08-25T11:11:30;3.92;;;3.55;;
26696;SDS011;14312;52.614;13.496;2022-08-25T11:14:28;3.92;;;3.53;;
26696;SDS011;14312;52.614;13.496;2022-08-25T11:17:19;4.18;;;3.33;;
26696;SDS011;14312;52.614;13.496;2022-08-25T11:20:10;3.63;;;3.10;;
26696;SDS011;14312;52.614;13.496;2022-08-25T11:26:09;5.97;;;3.13;;
26696;SDS011;14312;52.614;13.496;2022-08-25T11:29:00;3.58;;;3.10;;
26696;SDS011;14312;52.614;13.496;2022-08-25T11:31:51;3.38;;;3.10;;
26696;SDS011;14312;52.614;13.496;2022-08-25T11:34:38;3.70;;;3.10;;
26696;SDS011;14312;52.614;13.496;2022-08-25T11:37:25;3.38;;;3.08;;
26696;SDS011;14312;52.614;13.496;2022-08-25T11:43:25;4.93;;;3.30;;
26696;SDS011;14312;52.614;13.496;2022-08-25T11:46:16;3.35;;;2.78;;
26696;SDS011;14312;52.614;13.496;2022-08-25T11:52:37;5.35;;;2.95;;
26696;SDS011;14312;52.614;13.496;2022-08-25T11:56:11;3.75;;;3.00;;
26696;SDS011;14312;52.614;13.496;2022-08-25T12:13:46;3.17;;;2.83;;
26696;SDS011;14312;52.614;13.496;2022-08-25T12:25:27;6.47;;;3.40;;
26696;SDS011;14312;52.614;13.496;2022-08-25T12:28:25;3.65;;;3.15;;
26696;SDS011;14312;52.614;13.496;2022-08-25T12:31:45;4.53;;;3.60;;
26696;SDS011;14312;52.614;13.496;2022-08-25T12:34:39;3.28;;;2.88;;
26696;SDS011;14312;52.614;13.496;2022-08-25T12:37:32;4.38;;;3.17;;
26696;SDS011;14312;52.614;13.496;2022-08-25T12:40:52;3.47;;;2.97;;
26696;SDS011;14312;52.614;13.496;2022-08-25T12:43:29;3.72;;;3.30;;
26696;SDS011;14312;52.614;13.496;2022-08-25T12:54:51;3.53;;;3.20;;
26696;SDS011;14312;52.614;13.496;2022-08-25T12:57:41;3.53;;;3.15;;
26696;SDS011;14312;52.614;13.496;2022-08-25T13:00:31;3.53;;;2.85;;
26696;SDS011;14312;52.614;13.496;2022-08-25T13:07:36;3.50;;;3.13;;
26696;SDS011;14312;52.614;13.496;2022-08-25T13:16:50;3.50;;;3.17;;
26696;SDS011;14312;52.614;13.496;2022-08-25T13:19:40;3.72;;;2.80;;
26696;SDS011;14312;52.614;13.496;2022-08-25T13:22:26;3.10;;;2.78;;
26696;SDS011;14312;52.614;13.496;2022-08-25T13:25:15;4.00;;;2.80;;
26696;SDS011;14312;52.614;13.496;2022-08-25T13:28:03;3.63;;;2.90;;
26696;SDS011;14312;52.614;13.496;2022-08-25T13:30:57;3.55;;;2.88;;
26696;SDS011;14312;52.614;13.496;2022-08-25T13:34:04;4.68;;;3.20;;
26696;SDS011;14312;52.614;13.496;2022-08-25T13:36:51;4.10;;;3.10;;
26696;SDS011;14312;52.614;13.496;2022-08-25T13:43:06;3.05;;;2.75;;
26696;SDS011;14312;52.614;13.496;2022-08-25T13:45:55;5.10;;;2.85;;
26696;SDS011;14312;52.614;13.496;2022-08-25T13:48:41;3.80;;;3.28;;
26696;SDS011;14312;52.614;13.496;2022-08-25T13:51:27;2.65;;;2.45;;
26696;SDS011;14312;52.614;13.496;2022-08-25T13:54:22;6.40;;;2.85;;
26696;SDS011;14312;52.614;13.496;2022-08-25T13:57:22;3.63;;;2.78;;
26696;SDS011;14312;52.614;13.496;2022-08-25T14:00:11;2.60;;;2.40;;
26696;SDS011;14312;52.614;13.496;2022-08-25T14:02:57;2.75;;;2.55;;
26696;SDS011;14312;52.614;13.496;2022-08-25T14:05:45;2.72;;;2.53;;
26696;SDS011;14312;52.614;13.496;2022-08-25T14:08:33;3.35;;;2.70;;
26696;SDS011;14312;52.614;13.496;2022-08-25T14:17:07;3.42;;;2.97;;
26696;SDS011;14312;52.614;13.496;2022-08-25T14:19:55;3.10;;;2.80;;
26696;SDS011;14312;52.614;13.496;2022-08-25T14:22:41;4.47;;;2.90;;
26696;SDS011;14312;52.614;13.496;2022-08-25T14:25:28;3.05;;;2.78;;
26696;SDS011;14312;52.614;13.496;2022-08-25T14:28:15;3.28;;;2.88;;
26696;SDS011;14312;52.614;13.496;2022-08-25T14:31:05;2.70;;;2.50;;
26696;SDS011;14312;52.614;13.496;2022-08-25T14:34:03;3.10;;;2.72;;
26696;SDS011;14312;52.614;13.496;2022-08-25T14:36:52;4.22;;;2.65;;
26696;SDS011;14312;52.614;13.496;2022-08-25T14:39:38;2.75;;;2.55;;
26696;SDS011;14312;52.614;13.496;2022-08-25T14:42:24;2.83;;;2.50;;
26696;SDS011;14312;52.614;13.496;2022-08-25T14:45:10;2.80;;;2.60;;
26696;SDS011;14312;52.614;13.496;2022-08-25T14:47:58;4.15;;;2.90;;
26696;SDS011;14312;52.614;13.496;2022-08-25T14:50:50;2.65;;;2.45;;
26696;SDS011;14312;52.614;13.496;2022-08-25T14:53:37;2.65;;;2.38;;
26696;SDS011;14312;52.614;13.496;2022-08-25T14:56:24;4.22;;;2.88;;
26696;SDS011;14312;52.614;13.496;2022-08-25T14:59:10;2.97;;;2.75;;
26696;SDS011;14312;52.614;13.496;2022-08-25T15:01:56;3.67;;;2.90;;
26696;SDS011;14312;52.614;13.496;2022-08-25T15:04:42;3.53;;;2.70;;
26696;SDS011;14312;52.614;13.496;2022-08-25T15:07:34;2.83;;;2.60;;
26696;SDS011;14312;52.614;13.496;2022-08-25T15:10:39;3.58;;;2.67;;
26696;SDS011;14312;52.614;13.496;2022-08-25T15:13:25;4.18;;;3.13;;
26696;SDS011;14312;52.614;13.496;2022-08-25T15:16:13;2.63;;;2.42;;
26696;SDS011;14312;52.614;13.496;2022-08-25T15:19:04;2.60;;;2.13;;
26696;SDS011;14312;52.614;13.496;2022-08-25T15:21:51;2.67;;;2.47;;
26696;SDS011;14312;52.614;13.496;2022-08-25T15:24:37;2.90;;;2.40;;
26696;SDS011;14312;52.614;13.496;2022-08-25T15:27:23;3.55;;;2.65;;
26696;SDS011;14312;52.614;13.496;2022-08-25T15:30:09;3.75;;;2.45;;
26696;SDS011;14312;52.614;13.496;2022-08-25T15:32:55;2.92;;;2.63;;
26696;SDS011;14312;52.614;13.496;2022-08-25T15:35:41;3.72;;;2.60;;
26696;SDS011;14312;52.614;13.496;2022-08-25T15:38:27;4.45;;;2.55;;
26696;SDS011;14312;52.614;13.496;2022-08-25T15:41:13;3.33;;;2.60;;
26696;SDS011;14312;52.614;13.496;2022-08-25T15:43:59;3.88;;;2.90;;
26696;SDS011;14312;52.614;13.496;2022-08-25T15:46:45;3.25;;;2.45;;
26696;SDS011;14312;52.614;13.496;2022-08-25T15:49:31;4.00;;;2.58;;
26696;SDS011;14312;52.614;13.496;2022-08-25T15:52:17;2.70;;;2.50;;
26696;SDS011;14312;52.614;13.496;2022-08-25T15:55:03;3.40;;;2.70;;
26696;SDS011;14312;52.614;13.496;2022-08-25T15:57:49;4.43;;;2.72;;
26696;SDS011;14312;52.614;13.496;2022-08-25T16:00:35;3.83;;;2.55;;
26696;SDS011;14312;52.614;13.496;2022-08-25T16:03:21;3.20;;;2.40;;
26696;SDS011;14312;52.614;13.496;2022-08-25T16:06:07;4.47;;;2.08;;
26696;SDS011;14312;52.614;13.496;2022-08-25T16:08:53;2.45;;;2.15;;
26696;SDS011;14312;52.614;13.496;2022-08-25T16:11:40;3.63;;;2.53;;
26696;SDS011;14312;52.614;13.496;2022-08-25T16:14:27;3.72;;;2.90;;
26696;SDS011;14312;52.614;13.496;2022-08-25T16:17:13;2.60;;;2.38;;
26696;SDS011;14312;52.614;13.496;2022-08-25T16:19:59;3.10;;;2.47;;
26696;SDS011;14312;52.614;13.496;2022-08-25T16:22:45;3.55;;;2.55;;
26696;SDS011;14312;52.614;13.496;2022-08-25T16:25:32;2.40;;;2.17;;
26696;SDS011;14312;52.614;13.496;2022-08-25T16:28:18;3.92;;;2.35;;
26696;SDS011;14312;52.614;13.496;2022-08-25T16:31:05;4.53;;;2.50;;
26696;SDS011;14312;52.614;13.496;2022-08-25T16:33:54;4.07;;;2.63;;
26696;SDS011;14312;52.614;13.496;2022-08-25T16:36:40;4.88;;;2.58;;
26696;SDS011;14312;52.614;13.496;2022-08-25T16:39:25;4.05;;;2.55;;
26696;SDS011;14312;52.614;13.496;2022-08-25T16:42:12;5.03;;;2.25;;
26696;SDS011;14312;52.614;13.496;2022-08-25T16:44:58;4.07;;;2.78;;
26696;SDS011;14312;52.614;13.496;2022-08-25T16:47:44;9.65;;;3.60;;
26696;SDS011;14312;52.614;13.496;2022-08-25T16:50:30;11.30;;;4.13;;
26696;SDS011;14312;52.614;13.496;2022-08-25T16:53:16;13.35;;;7.10;;
26696;SDS011;14312;52.614;13.496;2022-08-25T16:56:21;12.30;;;6.22;;
26696;SDS011;14312;52.614;13.496;2022-08-25T16:59:09;9.73;;;5.65;;
26696;SDS011;14312;52.614;13.496;2022-08-25T17:01:56;7.50;;;4.50;;
26696;SDS011;14312;52.614;13.496;2022-08-25T17:04:42;6.50;;;3.53;;
26696;SDS011;14312;52.614;13.496;2022-08-25T17:07:28;5.43;;;3.00;;
26696;SDS011;14312;52.614;13.496;2022-08-25T17:10:13;3.95;;;2.90;;
26696;SDS011;14312;52.614;13.496;2022-08-25T17:12:59;4.10;;;2.70;;
26696;SDS011;14312;52.614;13.496;2022-08-25T17:15:45;4.72;;;2.95;;
26696;SDS011;14312;52.614;13.496;2022-08-25T17:18:33;5.47;;;2.85;;
26696;SDS011;14312;52.614;13.496;2022-08-25T17:21:20;7.88;;;2.55;;
26696;SDS011;14312;52.614;13.496;2022-08-25T17:24:06;3.60;;;2.60;;
26696;SDS011;14312;52.614;13.496;2022-08-25T17:26:53;6.18;;;2.80;;
26696;SDS011;14312;52.614;13.496;2022-08-25T17:29:39;5.55;;;2.70;;
26696;SDS011;14312;52.614;13.496;2022-08-25T17:32:27;5.65;;;2.40;;
26696;SDS011;14312;52.614;13.496;2022-08-25T17:35:13;4.68;;;2.40;;
26696;SDS011;14312;52.614;13.496;2022-08-25T17:37:59;7.55;;;2.60;;
26696;SDS011;14312;52.614;13.496;2022-08-25T17:40:45;5.28;;;2.55;;
26696;SDS011;14312;52.614;13.496;2022-08-25T17:43:33;7.00;;;2.70;;
26696;SDS011;14312;52.614;13.496;2022-08-25T17:46:20;3.60;;;2.28;;
26696;SDS011;14312;52.614;13.496;2022-08-25T17:49:06;3.45;;;2.47;;
26696;SDS011;14312;52.614;13.496;2022-08-25T17:51:53;3.15;;;2.40;;
26696;SDS011;14312;52.614;13.496;2022-08-25T17:54:39;3.15;;;2.10;;
26696;SDS011;14312;52.614;13.496;2022-08-25T17:57:24;9.23;;;2.88;;
26696;SDS011;14312;52.614;13.496;2022-08-25T18:00:10;4.18;;;2.47;;
26696;SDS011;14312;52.614;13.496;2022-08-25T18:02:58;3.72;;;2.25;;
26696;SDS011;14312;52.614;13.496;2022-08-25T18:05:44;4.60;;;2.67;;
26696;SDS011;14312;52.614;13.496;2022-08-25T18:08:30;2.90;;;2.53;;
26696;SDS011;14312;52.614;13.496;2022-08-25T18:11:16;6.47;;;3.00;;
26696;SDS011;14312;52.614;13.496;2022-08-25T18:14:03;4.50;;;2.40;;
26696;SDS011;14312;52.614;13.496;2022-08-25T18:16:48;4.18;;;2.47;;